Mount Robson — P3TB9 — position and weather

sailwx.info

Track history (hours):
 
Tides and Currents Weather Stations Pressure Air Temp Water Temp Dewpoint Dewpoint Depression Visibility Wind Speed Wind Dir Waves Ship Positions

Mount Robson

Last reported at 2014-Sep-21 12:33 UTC. Time now 2014-Sep-21 14:13 UTC.
Position N 38°02' E 023°31'.

Length 181 m; draft 7.4 m.

Type: Tanker. MMSI: 210253000.

Date/timePositionNaut miles runAvg speedWind from/ knotsBaromVisibWave heightAir tempDewpointWater temp
2014-Sep-21 12:33N 38°02' E 023°31'6 6.5
2014-Sep-21 11:34N 37°57' E 023°36'1111.0
2014-Sep-21 10:33N 37°47' E 023°41'1313.1
2014-Sep-21 09:34N 37°35' E 023°47'2712.0
2014-Sep-21 07:18N 37°09' E 023°58'1011.8
2014-Sep-21 06:27N 36°60' E 024°02'1412.2
2014-Sep-21 05:19N 36°47' E 024°08'912.4
2014-Sep-21 04:34N 36°38' E 024°13'1212.0
2014-Sep-21 03:34N 36°30' E 024°24'1211.9
2014-Sep-21 02:33N 36°23' E 024°36'1212.0
2014-Sep-21 01:34N 36°17' E 024°49'1211.9
2014-Sep-21 00:33N 36°10' E 025°01'1212.4
2014-Sep-20 23:34N 36°04' E 025°14'1312.5
2014-Sep-20 22:33N 35°57' E 025°27'1312.3
2014-Sep-20 21:32N 35°49' E 025°40'34511.8
2014-Sep-19 16:14N 34°29' E 032°30'912.3
2014-Sep-19 15:30N 34°28' E 032°41'1212.4
2014-Sep-19 14:33N 34°26' E 032°55'1212.0
2014-Sep-19 13:33N 34°26' E 033°10'1212.0
2014-Sep-19 12:34N 34°27' E 033°24'108 2.4
2014-Sep-17 15:16N 34°05' E 035°33'11 2.9
2014-Sep-17 11:31N 33°54' E 035°33'0 0.0
2014-Sep-17 10:33N 33°54' E 035°33'  
2014-Sep-15 03:33N 34°15' E 032°56'1313.2
2014-Sep-15 02:33N 34°17' E 032°41'1713.4
2014-Sep-15 01:15N 34°21' E 032°20'3813.3
2014-Sep-14 22:24N 34°28' E 031°35'9113.1
2014-Sep-14 15:26N 34°45' E 029°46'22312.5
2014-Sep-13 21:34N 35°56' E 025°27'1312.6
2014-Sep-13 20:33N 36°03' E 025°14'1312.7
2014-Sep-13 19:32N 36°10' E 025°01'1313.2
2014-Sep-13 18:33N 36°17' E 024°48'1313.5
2014-Sep-13 17:33N 36°25' E 024°34'1312.8
2014-Sep-13 16:33N 36°32' E 024°20'1211.9
2014-Sep-13 15:33N 36°41' E 024°11'1312.8
2014-Sep-13 14:33N 36°53' E 024°05'1313.0
2014-Sep-13 13:33N 37°05' E 023°59'1713.0
2014-Sep-13 12:15N 37°21' E 023°52'2212.7
2014-Sep-13 10:33N 37°41' E 023°41'1312.5
2014-Sep-13 09:33N 37°53' E 023°36'8 0.2
2014-Sep-11 13:31N 38°02' E 023°36'  
Track history (hours):
 
Tides and Currents Weather Stations Pressure Air Temp Water Temp Dewpoint Dewpoint Depression Visibility Wind Speed Wind Dir Waves Ship Positions

Mount Robson

Last reported at 2014-Sep-21 12:33 UTC. Time now 2014-Sep-21 14:13 UTC.
Position N 38°02' E 023°31'.

Length 181 m; draft 7.4 m.

Type: Tanker. MMSI: 210253000.

Date/timePositionNaut miles runAvg speedWind from/ knotsBaromVisibWave heightAir tempDewpointWater temp
2014-Sep-21 12:33N 38°02' E 023°31'6 6.5
2014-Sep-21 11:34N 37°57' E 023°36'1111.0
2014-Sep-21 10:33N 37°47' E 023°41'1313.1
2014-Sep-21 09:34N 37°35' E 023°47'2712.0
2014-Sep-21 07:18N 37°09' E 023°58'1011.8
2014-Sep-21 06:27N 36°60' E 024°02'1412.2
2014-Sep-21 05:19N 36°47' E 024°08'912.4
2014-Sep-21 04:34N 36°38' E 024°13'1212.0
2014-Sep-21 03:34N 36°30' E 024°24'1211.9
2014-Sep-21 02:33N 36°23' E 024°36'1212.0
2014-Sep-21 01:34N 36°17' E 024°49'1211.9
2014-Sep-21 00:33N 36°10' E 025°01'1212.4
2014-Sep-20 23:34N 36°04' E 025°14'1312.5
2014-Sep-20 22:33N 35°57' E 025°27'1312.3
2014-Sep-20 21:32N 35°49' E 025°40'34511.8
2014-Sep-19 16:14N 34°29' E 032°30'912.3
2014-Sep-19 15:30N 34°28' E 032°41'1212.4
2014-Sep-19 14:33N 34°26' E 032°55'1212.0
2014-Sep-19 13:33N 34°26' E 033°10'1212.0
2014-Sep-19 12:34N 34°27' E 033°24'108 2.4
2014-Sep-17 15:16N 34°05' E 035°33'11 2.9
2014-Sep-17 11:31N 33°54' E 035°33'0 0.0
2014-Sep-17 10:33N 33°54' E 035°33'  
2014-Sep-15 03:33N 34°15' E 032°56'1313.2
2014-Sep-15 02:33N 34°17' E 032°41'1713.4
2014-Sep-15 01:15N 34°21' E 032°20'3813.3
2014-Sep-14 22:24N 34°28' E 031°35'9113.1
2014-Sep-14 15:26N 34°45' E 029°46'22312.5
2014-Sep-13 21:34N 35°56' E 025°27'1312.6
2014-Sep-13 20:33N 36°03' E 025°14'1312.7
2014-Sep-13 19:32N 36°10' E 025°01'1313.2
2014-Sep-13 18:33N 36°17' E 024°48'1313.5
2014-Sep-13 17:33N 36°25' E 024°34'1312.8
2014-Sep-13 16:33N 36°32' E 024°20'1211.9
2014-Sep-13 15:33N 36°41' E 024°11'1312.8
2014-Sep-13 14:33N 36°53' E 024°05'1313.0
2014-Sep-13 13:33N 37°05' E 023°59'1713.0
2014-Sep-13 12:15N 37°21' E 023°52'2212.7
2014-Sep-13 10:33N 37°41' E 023°41'1312.5
2014-Sep-13 09:33N 37°53' E 023°36'8 0.2
2014-Sep-11 13:31N 38°02' E 023°36'  

Dump ship's entire track history